sensor_id;sensor_type;location;lat;lon;timestamp;temperature;humidity
4390;DHT22;2209;48.982;8.406;2023-09-19T00:00:42;20.70;99.90
4390;DHT22;2209;48.982;8.406;2023-09-19T00:03:06;20.70;99.90
4390;DHT22;2209;48.982;8.406;2023-09-19T00:05:29;20.60;99.90
4390;DHT22;2209;48.982;8.406;2023-09-19T00:07:53;20.60;99.90
4390;DHT22;2209;48.982;8.406;2023-09-19T00:10:15;20.60;99.90
4390;DHT22;2209;48.982;8.406;2023-09-19T00:12:42;20.60;99.90
4390;DHT22;2209;48.982;8.406;2023-09-19T00:15:05;20.60;99.90
4390;DHT22;2209;48.982;8.406;2023-09-19T00:17:28;20.50;99.90
4390;DHT22;2209;48.982;8.406;2023-09-19T00:19:53;20.50;99.90
4390;DHT22;2209;48.982;8.406;2023-09-19T00:22:15;20.50;99.90
4390;DHT22;2209;48.982;8.406;2023-09-19T00:24:39;20.40;99.90
4390;DHT22;2209;48.982;8.406;2023-09-19T00:27:02;20.40;99.90
4390;DHT22;2209;48.982;8.406;2023-09-19T00:29:25;20.40;99.90
4390;DHT22;2209;48.982;8.406;2023-09-19T00:31:49;20.40;99.90
4390;DHT22;2209;48.982;8.406;2023-09-19T00:34:11;20.30;99.90
4390;DHT22;2209;48.982;8.406;2023-09-19T00:36:35;20.40;99.90
4390;DHT22;2209;48.982;8.406;2023-09-19T00:38:59;20.40;99.90
4390;DHT22;2209;48.982;8.406;2023-09-19T00:41:21;20.40;99.90
4390;DHT22;2209;48.982;8.406;2023-09-19T00:43:45;20.40;99.90
4390;DHT22;2209;48.982;8.406;2023-09-19T00:46:08;20.40;99.90
4390;DHT22;2209;48.982;8.406;2023-09-19T00:48:30;20.40;99.90
4390;DHT22;2209;48.982;8.406;2023-09-19T00:50:53;20.40;99.90
4390;DHT22;2209;48.982;8.406;2023-09-19T00:53:19;20.40;99.90
4390;DHT22;2209;48.982;8.406;2023-09-19T00:55:43;20.30;99.90
4390;DHT22;2209;48.982;8.406;2023-09-19T00:58:06;20.30;99.90
4390;DHT22;2209;48.982;8.406;2023-09-19T01:00:28;20.30;99.90
4390;DHT22;2209;48.982;8.406;2023-09-19T01:02:51;20.30;99.90
4390;DHT22;2209;48.982;8.406;2023-09-19T01:05:14;20.30;99.90
4390;DHT22;2209;48.982;8.406;2023-09-19T01:07:36;20.30;99.90
4390;DHT22;2209;48.982;8.406;2023-09-19T01:10:03;20.30;99.90
4390;DHT22;2209;48.982;8.406;2023-09-19T01:12:33;20.30;99.90
4390;DHT22;2209;48.982;8.406;2023-09-19T01:15:06;20.30;99.90
4390;DHT22;2209;48.982;8.406;2023-09-19T01:17:40;20.30;99.90
4390;DHT22;2209;48.982;8.406;2023-09-19T01:20:15;20.30;99.90
4390;DHT22;2209;48.982;8.406;2023-09-19T01:22:48;20.40;99.90
4390;DHT22;2209;48.982;8.406;2023-09-19T01:28:20;20.40;99.90
4390;DHT22;2209;48.982;8.406;2023-09-19T01:30:52;20.40;99.90
4390;DHT22;2209;48.982;8.406;2023-09-19T01:33:18;20.30;99.90
4390;DHT22;2209;48.982;8.406;2023-09-19T01:35:41;20.30;99.90
4390;DHT22;2209;48.982;8.406;2023-09-19T01:38:03;20.30;99.90
4390;DHT22;2209;48.982;8.406;2023-09-19T01:40:25;20.30;99.90
4390;DHT22;2209;48.982;8.406;2023-09-19T01:42:51;20.30;99.90
4390;DHT22;2209;48.982;8.406;2023-09-19T01:45:23;20.30;99.90
4390;DHT22;2209;48.982;8.406;2023-09-19T01:47:50;20.30;99.90
4390;DHT22;2209;48.982;8.406;2023-09-19T01:50:21;20.30;99.90
4390;DHT22;2209;48.982;8.406;2023-09-19T01:52:48;20.20;99.90
4390;DHT22;2209;48.982;8.406;2023-09-19T01:55:11;20.20;99.90
4390;DHT22;2209;48.982;8.406;2023-09-19T01:57:42;20.20;99.90
4390;DHT22;2209;48.982;8.406;2023-09-19T02:00:07;20.20;99.90
4390;DHT22;2209;48.982;8.406;2023-09-19T02:02:30;20.20;99.90
4390;DHT22;2209;48.982;8.406;2023-09-19T02:04:54;20.30;99.90
4390;DHT22;2209;48.982;8.406;2023-09-19T02:07:17;20.30;99.90
4390;DHT22;2209;48.982;8.406;2023-09-19T02:09:39;20.20;99.90
4390;DHT22;2209;48.982;8.406;2023-09-19T02:12:04;20.20;99.90
4390;DHT22;2209;48.982;8.406;2023-09-19T02:14:26;20.20;99.90
4390;DHT22;2209;48.982;8.406;2023-09-19T02:16:50;20.20;99.90
4390;DHT22;2209;48.982;8.406;2023-09-19T02:19:12;20.20;99.90
4390;DHT22;2209;48.982;8.406;2023-09-19T02:21:36;20.20;99.90
4390;DHT22;2209;48.982;8.406;2023-09-19T02:24:01;20.20;99.90
4390;DHT22;2209;48.982;8.406;2023-09-19T02:26:23;20.20;99.90
4390;DHT22;2209;48.982;8.406;2023-09-19T02:28:45;20.20;99.90
4390;DHT22;2209;48.982;8.406;2023-09-19T02:31:08;20.30;99.90
4390;DHT22;2209;48.982;8.406;2023-09-19T02:33:30;20.30;99.90
4390;DHT22;2209;48.982;8.406;2023-09-19T02:35:55;20.20;99.90
4390;DHT22;2209;48.982;8.406;2023-09-19T02:38:19;20.20;99.90
4390;DHT22;2209;48.982;8.406;2023-09-19T02:40:45;20.20;99.90
4390;DHT22;2209;48.982;8.406;2023-09-19T02:43:07;20.10;99.90
4390;DHT22;2209;48.982;8.406;2023-09-19T02:45:30;20.10;99.90
4390;DHT22;2209;48.982;8.406;2023-09-19T02:47:53;20.10;99.90
4390;DHT22;2209;48.982;8.406;2023-09-19T02:50:16;20.00;99.90
4390;DHT22;2209;48.982;8.406;2023-09-19T02:52:38;20.00;99.90
4390;DHT22;2209;48.982;8.406;2023-09-19T02:55:02;20.00;99.90
4390;DHT22;2209;48.982;8.406;2023-09-19T02:57:26;20.00;99.90
4390;DHT22;2209;48.982;8.406;2023-09-19T02:59:49;20.00;99.90
4390;DHT22;2209;48.982;8.406;2023-09-19T03:02:11;20.00;99.90
4390;DHT22;2209;48.982;8.406;2023-09-19T03:04:34;20.00;99.90
4390;DHT22;2209;48.982;8.406;2023-09-19T03:06:56;20.00;99.90
4390;DHT22;2209;48.982;8.406;2023-09-19T03:09:21;20.00;99.90
4390;DHT22;2209;48.982;8.406;2023-09-19T03:11:45;20.00;99.90
4390;DHT22;2209;48.982;8.406;2023-09-19T03:14:09;19.90;99.90
4390;DHT22;2209;48.982;8.406;2023-09-19T03:16:32;19.90;99.90
4390;DHT22;2209;48.982;8.406;2023-09-19T03:18:54;19.90;99.90
4390;DHT22;2209;48.982;8.406;2023-09-19T03:21:16;19.90;99.90
4390;DHT22;2209;48.982;8.406;2023-09-19T03:23:40;19.90;99.90
4390;DHT22;2209;48.982;8.406;2023-09-19T03:26:02;19.90;99.90
4390;DHT22;2209;48.982;8.406;2023-09-19T03:28:27;19.80;99.90
4390;DHT22;2209;48.982;8.406;2023-09-19T03:31:00;19.80;99.90
4390;DHT22;2209;48.982;8.406;2023-09-19T03:33:22;19.80;99.90
4390;DHT22;2209;48.982;8.406;2023-09-19T03:35:52;19.80;99.90
4390;DHT22;2209;48.982;8.406;2023-09-19T03:38:14;19.80;99.90
4390;DHT22;2209;48.982;8.406;2023-09-19T03:40:36;19.80;99.90
4390;DHT22;2209;48.982;8.406;2023-09-19T03:43:00;19.80;99.90
4390;DHT22;2209;48.982;8.406;2023-09-19T03:45:24;19.90;99.90
4390;DHT22;2209;48.982;8.406;2023-09-19T03:47:46;19.80;99.90
4390;DHT22;2209;48.982;8.406;2023-09-19T03:50:09;19.80;99.90
4390;DHT22;2209;48.982;8.406;2023-09-19T03:52:32;19.80;99.90
4390;DHT22;2209;48.982;8.406;2023-09-19T03:54:54;19.80;99.90
4390;DHT22;2209;48.982;8.406;2023-09-19T03:57:16;19.80;99.90
4390;DHT22;2209;48.982;8.406;2023-09-19T03:59:41;19.70;99.90
4390;DHT22;2209;48.982;8.406;2023-09-19T04:02:05;19.60;99.90
4390;DHT22;2209;48.982;8.406;2023-09-19T04:04:32;19.60;99.90
4390;DHT22;2209;48.982;8.406;2023-09-19T04:06:54;19.50;99.90
4390;DHT22;2209;48.982;8.406;2023-09-19T04:09:16;19.60;99.90
4390;DHT22;2209;48.982;8.406;2023-09-19T04:11:39;19.50;99.90
4390;DHT22;2209;48.982;8.406;2023-09-19T04:14:03;19.50;99.90
4390;DHT22;2209;48.982;8.406;2023-09-19T04:16:25;19.50;99.90
4390;DHT22;2209;48.982;8.406;2023-09-19T04:18:49;19.50;99.90
4390;DHT22;2209;48.982;8.406;2023-09-19T04:21:11;19.50;99.90
4390;DHT22;2209;48.982;8.406;2023-09-19T04:23:33;19.50;99.90
4390;DHT22;2209;48.982;8.406;2023-09-19T04:25:55;19.50;99.90
4390;DHT22;2209;48.982;8.406;2023-09-19T04:28:17;19.50;99.90
4390;DHT22;2209;48.982;8.406;2023-09-19T04:30:39;19.50;99.90
4390;DHT22;2209;48.982;8.406;2023-09-19T04:33:02;19.50;99.90
4390;DHT22;2209;48.982;8.406;2023-09-19T04:35:27;19.50;99.90
4390;DHT22;2209;48.982;8.406;2023-09-19T04:37:52;19.50;99.90
4390;DHT22;2209;48.982;8.406;2023-09-19T04:40:15;19.50;99.90
4390;DHT22;2209;48.982;8.406;2023-09-19T04:42:39;19.50;99.90
4390;DHT22;2209;48.982;8.406;2023-09-19T04:45:02;19.50;99.90
4390;DHT22;2209;48.982;8.406;2023-09-19T04:47:25;19.40;99.90
4390;DHT22;2209;48.982;8.406;2023-09-19T04:49:48;19.40;99.90
4390;DHT22;2209;48.982;8.406;2023-09-19T04:52:11;19.40;99.90
4390;DHT22;2209;48.982;8.406;2023-09-19T04:54:36;19.40;99.90
4390;DHT22;2209;48.982;8.406;2023-09-19T04:56:58;19.40;99.90
4390;DHT22;2209;48.982;8.406;2023-09-19T04:59:21;19.40;99.90
4390;DHT22;2209;48.982;8.406;2023-09-19T05:01:43;19.40;99.90
4390;DHT22;2209;48.982;8.406;2023-09-19T05:04:06;19.40;99.90
4390;DHT22;2209;48.982;8.406;2023-09-19T05:06:28;19.40;99.90
4390;DHT22;2209;48.982;8.406;2023-09-19T05:08:51;19.40;99.90
4390;DHT22;2209;48.982;8.406;2023-09-19T05:11:13;19.40;99.90
4390;DHT22;2209;48.982;8.406;2023-09-19T05:13:35;19.30;99.90
4390;DHT22;2209;48.982;8.406;2023-09-19T05:16:00;19.30;99.90
4390;DHT22;2209;48.982;8.406;2023-09-19T05:18:23;19.30;99.90
4390;DHT22;2209;48.982;8.406;2023-09-19T05:20:45;19.30;99.90
4390;DHT22;2209;48.982;8.406;2023-09-19T05:23:08;19.20;99.90
4390;DHT22;2209;48.982;8.406;2023-09-19T05:25:33;19.20;99.90
4390;DHT22;2209;48.982;8.406;2023-09-19T05:27:58;19.20;99.90
4390;DHT22;2209;48.982;8.406;2023-09-19T05:30:21;19.10;99.90
4390;DHT22;2209;48.982;8.406;2023-09-19T05:32:43;19.10;99.90
4390;DHT22;2209;48.982;8.406;2023-09-19T05:35:06;19.00;99.90
4390;DHT22;2209;48.982;8.406;2023-09-19T05:37:30;19.00;99.90
4390;DHT22;2209;48.982;8.406;2023-09-19T05:39:52;19.00;99.90
4390;DHT22;2209;48.982;8.406;2023-09-19T05:42:16;19.00;99.90
4390;DHT22;2209;48.982;8.406;2023-09-19T05:44:38;19.00;99.90
4390;DHT22;2209;48.982;8.406;2023-09-19T05:47:00;18.90;99.90
4390;DHT22;2209;48.982;8.406;2023-09-19T05:49:22;19.00;99.90
4390;DHT22;2209;48.982;8.406;2023-09-19T05:51:45;18.90;99.90
4390;DHT22;2209;48.982;8.406;2023-09-19T05:54:08;18.90;99.90
4390;DHT22;2209;48.982;8.406;2023-09-19T05:56:31;18.90;99.90
4390;DHT22;2209;48.982;8.406;2023-09-19T05:58:55;18.90;99.90
4390;DHT22;2209;48.982;8.406;2023-09-19T06:01:17;18.90;99.90
4390;DHT22;2209;48.982;8.406;2023-09-19T06:03:39;18.90;99.90
4390;DHT22;2209;48.982;8.406;2023-09-19T06:06:01;18.90;99.90
4390;DHT22;2209;48.982;8.406;2023-09-19T06:08:23;18.90;99.90
4390;DHT22;2209;48.982;8.406;2023-09-19T06:10:46;19.00;99.90
4390;DHT22;2209;48.982;8.406;2023-09-19T06:13:09;19.00;99.90
4390;DHT22;2209;48.982;8.406;2023-09-19T06:15:33;19.00;99.90
4390;DHT22;2209;48.982;8.406;2023-09-19T06:17:56;19.00;99.90
4390;DHT22;2209;48.982;8.406;2023-09-19T06:20:20;19.00;99.90
4390;DHT22;2209;48.982;8.406;2023-09-19T06:22:44;18.90;99.90
4390;DHT22;2209;48.982;8.406;2023-09-19T06:25:06;18.90;99.90
4390;DHT22;2209;48.982;8.406;2023-09-19T06:27:28;18.90;99.90
4390;DHT22;2209;48.982;8.406;2023-09-19T06:29:50;18.90;99.90
4390;DHT22;2209;48.982;8.406;2023-09-19T06:32:14;18.90;99.90
4390;DHT22;2209;48.982;8.406;2023-09-19T06:34:36;18.90;99.90
4390;DHT22;2209;48.982;8.406;2023-09-19T06:36:59;18.90;99.90
4390;DHT22;2209;48.982;8.406;2023-09-19T06:39:21;18.90;99.90
4390;DHT22;2209;48.982;8.406;2023-09-19T06:41:44;18.90;99.90
4390;DHT22;2209;48.982;8.406;2023-09-19T06:44:07;18.90;99.90
4390;DHT22;2209;48.982;8.406;2023-09-19T06:46:30;18.90;99.90
4390;DHT22;2209;48.982;8.406;2023-09-19T06:48:57;18.90;99.90
4390;DHT22;2209;48.982;8.406;2023-09-19T06:51:19;18.90;99.90
4390;DHT22;2209;48.982;8.406;2023-09-19T06:53:41;18.90;99.90
4390;DHT22;2209;48.982;8.406;2023-09-19T06:56:04;18.90;99.90
4390;DHT22;2209;48.982;8.406;2023-09-19T06:58:27;18.90;99.90
4390;DHT22;2209;48.982;8.406;2023-09-19T07:00:49;19.00;99.90
4390;DHT22;2209;48.982;8.406;2023-09-19T07:03:13;19.00;99.90
4390;DHT22;2209;48.982;8.406;2023-09-19T07:05:39;19.00;99.90
4390;DHT22;2209;48.982;8.406;2023-09-19T07:08:01;19.00;99.90
4390;DHT22;2209;48.982;8.406;2023-09-19T07:10:23;19.10;99.90
4390;DHT22;2209;48.982;8.406;2023-09-19T07:12:47;19.00;99.90
4390;DHT22;2209;48.982;8.406;2023-09-19T07:15:15;19.00;99.90
4390;DHT22;2209;48.982;8.406;2023-09-19T07:17:37;19.00;99.90
4390;DHT22;2209;48.982;8.406;2023-09-19T07:19:59;19.00;99.90
4390;DHT22;2209;48.982;8.406;2023-09-19T07:22:23;19.00;99.90
4390;DHT22;2209;48.982;8.406;2023-09-19T07:24:45;19.00;99.90
4390;DHT22;2209;48.982;8.406;2023-09-19T07:27:09;19.00;99.90
4390;DHT22;2209;48.982;8.406;2023-09-19T07:29:31;19.00;99.90
4390;DHT22;2209;48.982;8.406;2023-09-19T07:31:53;19.00;99.90
4390;DHT22;2209;48.982;8.406;2023-09-19T07:34:15;19.10;99.90
4390;DHT22;2209;48.982;8.406;2023-09-19T07:36:38;19.10;99.90
4390;DHT22;2209;48.982;8.406;2023-09-19T07:39:04;19.00;99.90
4390;DHT22;2209;48.982;8.406;2023-09-19T07:41:27;19.00;99.90
4390;DHT22;2209;48.982;8.406;2023-09-19T07:43:51;19.10;99.90
4390;DHT22;2209;48.982;8.406;2023-09-19T07:46:13;19.10;99.90
4390;DHT22;2209;48.982;8.406;2023-09-19T07:48:35;19.10;99.90
4390;DHT22;2209;48.982;8.406;2023-09-19T07:51:02;19.00;99.90
4390;DHT22;2209;48.982;8.406;2023-09-19T07:53:24;19.00;99.90
4390;DHT22;2209;48.982;8.406;2023-09-19T07:55:47;19.00;99.90
4390;DHT22;2209;48.982;8.406;2023-09-19T07:58:09;19.00;99.90
4390;DHT22;2209;48.982;8.406;2023-09-19T08:00:31;19.10;99.90
4390;DHT22;2209;48.982;8.406;2023-09-19T08:02:55;19.10;99.90
4390;DHT22;2209;48.982;8.406;2023-09-19T08:05:18;19.10;99.90
4390;DHT22;2209;48.982;8.406;2023-09-19T08:07:43;19.00;99.90
4390;DHT22;2209;48.982;8.406;2023-09-19T08:10:07;19.00;99.90
4390;DHT22;2209;48.982;8.406;2023-09-19T08:12:35;19.00;99.90
4390;DHT22;2209;48.982;8.406;2023-09-19T08:14:57;19.00;99.90
4390;DHT22;2209;48.982;8.406;2023-09-19T08:17:20;19.10;99.90
4390;DHT22;2209;48.982;8.406;2023-09-19T08:19:43;19.10;99.90
4390;DHT22;2209;48.982;8.406;2023-09-19T08:22:07;19.10;99.90
4390;DHT22;2209;48.982;8.406;2023-09-19T08:24:31;19.10;99.90
4390;DHT22;2209;48.982;8.406;2023-09-19T08:26:54;19.10;99.90
4390;DHT22;2209;48.982;8.406;2023-09-19T08:29:17;19.10;99.90
4390;DHT22;2209;48.982;8.406;2023-09-19T08:31:39;19.10;99.90
4390;DHT22;2209;48.982;8.406;2023-09-19T08:34:02;19.20;99.90
4390;DHT22;2209;48.982;8.406;2023-09-19T08:36:24;19.20;99.90
4390;DHT22;2209;48.982;8.406;2023-09-19T08:38:46;19.20;99.90
4390;DHT22;2209;48.982;8.406;2023-09-19T08:41:10;19.20;99.90
4390;DHT22;2209;48.982;8.406;2023-09-19T08:43:33;19.20;99.90
4390;DHT22;2209;48.982;8.406;2023-09-19T08:46:05;19.20;99.90
4390;DHT22;2209;48.982;8.406;2023-09-19T08:48:30;19.20;99.90
4390;DHT22;2209;48.982;8.406;2023-09-19T08:50:56;19.30;99.90
4390;DHT22;2209;48.982;8.406;2023-09-19T08:53:27;19.30;99.90
4390;DHT22;2209;48.982;8.406;2023-09-19T08:55:51;19.30;99.90
4390;DHT22;2209;48.982;8.406;2023-09-19T08:58:17;19.40;99.90
4390;DHT22;2209;48.982;8.406;2023-09-19T09:00:44;19.30;99.90
4390;DHT22;2209;48.982;8.406;2023-09-19T09:03:11;19.30;99.90
4390;DHT22;2209;48.982;8.406;2023-09-19T09:05:36;19.40;99.90
4390;DHT22;2209;48.982;8.406;2023-09-19T09:08:02;19.40;99.90
4390;DHT22;2209;48.982;8.406;2023-09-19T09:10:26;19.30;99.90
4390;DHT22;2209;48.982;8.406;2023-09-19T09:12:49;19.30;99.90
4390;DHT22;2209;48.982;8.406;2023-09-19T09:15:15;19.40;99.90
4390;DHT22;2209;48.982;8.406;2023-09-19T09:17:40;19.30;99.90
4390;DHT22;2209;48.982;8.406;2023-09-19T09:20:06;19.30;99.90
4390;DHT22;2209;48.982;8.406;2023-09-19T09:22:30;19.30;99.90
4390;DHT22;2209;48.982;8.406;2023-09-19T09:24:54;19.40;99.90
4390;DHT22;2209;48.982;8.406;2023-09-19T09:27:19;19.40;99.90
4390;DHT22;2209;48.982;8.406;2023-09-19T09:29:42;19.30;99.90
4390;DHT22;2209;48.982;8.406;2023-09-19T09:32:16;19.30;99.90
4390;DHT22;2209;48.982;8.406;2023-09-19T09:34:40;19.30;99.90
4390;DHT22;2209;48.982;8.406;2023-09-19T09:37:04;19.30;99.90
4390;DHT22;2209;48.982;8.406;2023-09-19T09:39:31;19.30;99.90
4390;DHT22;2209;48.982;8.406;2023-09-19T09:41:55;19.40;99.90
4390;DHT22;2209;48.982;8.406;2023-09-19T09:44:20;19.40;99.90
4390;DHT22;2209;48.982;8.406;2023-09-19T09:46:43;19.40;99.90
4390;DHT22;2209;48.982;8.406;2023-09-19T09:49:39;19.40;99.90
4390;DHT22;2209;48.982;8.406;2023-09-19T09:52:04;19.50;99.90
4390;DHT22;2209;48.982;8.406;2023-09-19T09:54:29;19.50;99.90
4390;DHT22;2209;48.982;8.406;2023-09-19T09:56:58;19.50;99.90
4390;DHT22;2209;48.982;8.406;2023-09-19T09:59:21;19.60;99.90
4390;DHT22;2209;48.982;8.406;2023-09-19T10:01:47;19.60;99.90
4390;DHT22;2209;48.982;8.406;2023-09-19T10:04:09;19.50;99.90
4390;DHT22;2209;48.982;8.406;2023-09-19T10:06:40;19.50;99.90
4390;DHT22;2209;48.982;8.406;2023-09-19T10:09:09;19.60;99.90
4390;DHT22;2209;48.982;8.406;2023-09-19T10:11:42;19.60;99.90
4390;DHT22;2209;48.982;8.406;2023-09-19T10:14:05;19.60;99.90
4390;DHT22;2209;48.982;8.406;2023-09-19T10:16:30;19.60;99.90
4390;DHT22;2209;48.982;8.406;2023-09-19T10:18:55;19.60;99.90
4390;DHT22;2209;48.982;8.406;2023-09-19T10:21:19;19.60;99.90
4390;DHT22;2209;48.982;8.406;2023-09-19T10:23:43;19.60;99.90
4390;DHT22;2209;48.982;8.406;2023-09-19T10:26:07;19.70;99.90
4390;DHT22;2209;48.982;8.406;2023-09-19T10:28:30;19.70;99.90
4390;DHT22;2209;48.982;8.406;2023-09-19T10:30:53;19.80;99.90
4390;DHT22;2209;48.982;8.406;2023-09-19T10:33:18;19.80;99.90
4390;DHT22;2209;48.982;8.406;2023-09-19T10:35:43;19.80;99.90
4390;DHT22;2209;48.982;8.406;2023-09-19T10:38:06;19.90;99.90
4390;DHT22;2209;48.982;8.406;2023-09-19T10:40:29;19.90;99.90
4390;DHT22;2209;48.982;8.406;2023-09-19T10:43:00;19.90;99.90
4390;DHT22;2209;48.982;8.406;2023-09-19T10:45:23;19.90;99.90
4390;DHT22;2209;48.982;8.406;2023-09-19T10:47:47;19.90;99.90
4390;DHT22;2209;48.982;8.406;2023-09-19T10:50:12;19.90;99.90
4390;DHT22;2209;48.982;8.406;2023-09-19T10:52:42;19.80;99.90
4390;DHT22;2209;48.982;8.406;2023-09-19T10:55:07;19.80;99.90
4390;DHT22;2209;48.982;8.406;2023-09-19T10:57:32;19.90;99.90
4390;DHT22;2209;48.982;8.406;2023-09-19T11:00:04;19.90;99.90
4390;DHT22;2209;48.982;8.406;2023-09-19T11:02:41;19.90;99.90
4390;DHT22;2209;48.982;8.406;2023-09-19T11:05:12;19.90;99.90
4390;DHT22;2209;48.982;8.406;2023-09-19T11:07:56;19.90;99.90
4390;DHT22;2209;48.982;8.406;2023-09-19T11:10:45;19.90;99.90
4390;DHT22;2209;48.982;8.406;2023-09-19T11:13:23;19.90;99.90
4390;DHT22;2209;48.982;8.406;2023-09-19T11:16:19;19.90;99.90
4390;DHT22;2209;48.982;8.406;2023-09-19T11:18:54;20.00;99.90
4390;DHT22;2209;48.982;8.406;2023-09-19T11:21:51;20.00;99.90
4390;DHT22;2209;48.982;8.406;2023-09-19T11:24:28;20.10;99.90
4390;DHT22;2209;48.982;8.406;2023-09-19T11:27:09;20.10;99.90
4390;DHT22;2209;48.982;8.406;2023-09-19T11:29:33;20.10;99.90
4390;DHT22;2209;48.982;8.406;2023-09-19T11:31:58;20.20;99.90
4390;DHT22;2209;48.982;8.406;2023-09-19T11:34:46;20.20;99.90
4390;DHT22;2209;48.982;8.406;2023-09-19T11:40:31;20.20;99.90
4390;DHT22;2209;48.982;8.406;2023-09-19T11:42:53;20.20;99.90
4390;DHT22;2209;48.982;8.406;2023-09-19T11:46:05;20.20;99.90
4390;DHT22;2209;48.982;8.406;2023-09-19T11:48:29;20.20;99.60
4390;DHT22;2209;48.982;8.406;2023-09-19T11:51:18;20.30;99.80
4390;DHT22;2209;48.982;8.406;2023-09-19T11:53:49;20.30;99.90
4390;DHT22;2209;48.982;8.406;2023-09-19T11:56:11;20.30;99.80
4390;DHT22;2209;48.982;8.406;2023-09-19T11:58:37;20.40;99.80
4390;DHT22;2209;48.982;8.406;2023-09-19T12:01:00;20.40;99.90
4390;DHT22;2209;48.982;8.406;2023-09-19T12:07:01;20.50;99.90
4390;DHT22;2209;48.982;8.406;2023-09-19T12:09:39;20.50;99.90
4390;DHT22;2209;48.982;8.406;2023-09-19T12:12:19;20.50;99.90
4390;DHT22;2209;48.982;8.406;2023-09-19T12:14:47;20.50;99.90
4390;DHT22;2209;48.982;8.406;2023-09-19T12:17:10;20.50;99.90
4390;DHT22;2209;48.982;8.406;2023-09-19T12:19:33;20.50;99.90
4390;DHT22;2209;48.982;8.406;2023-09-19T12:22:01;20.50;99.50
4390;DHT22;2209;48.982;8.406;2023-09-19T12:24:27;20.50;99.60
4390;DHT22;2209;48.982;8.406;2023-09-19T12:26:51;20.50;99.60
4390;DHT22;2209;48.982;8.406;2023-09-19T12:29:15;20.50;99.60
4390;DHT22;2209;48.982;8.406;2023-09-19T12:31:50;20.50;99.60
4390;DHT22;2209;48.982;8.406;2023-09-19T12:34:16;20.60;99.30
4390;DHT22;2209;48.982;8.406;2023-09-19T12:36:40;20.60;99.00
4390;DHT22;2209;48.982;8.406;2023-09-19T12:39:04;20.60;98.90
4390;DHT22;2209;48.982;8.406;2023-09-19T12:41:30;20.70;99.00
4390;DHT22;2209;48.982;8.406;2023-09-19T12:43:52;20.70;98.80
4390;DHT22;2209;48.982;8.406;2023-09-19T12:46:14;20.70;98.50
4390;DHT22;2209;48.982;8.406;2023-09-19T12:48:40;20.70;98.70
4390;DHT22;2209;48.982;8.406;2023-09-19T12:51:05;20.80;98.20
4390;DHT22;2209;48.982;8.406;2023-09-19T12:53:28;20.90;98.20
4390;DHT22;2209;48.982;8.406;2023-09-19T12:56:00;20.90;98.30
4390;DHT22;2209;48.982;8.406;2023-09-19T12:58:22;21.00;98.40
4390;DHT22;2209;48.982;8.406;2023-09-19T13:00:45;21.00;98.50
4390;DHT22;2209;48.982;8.406;2023-09-19T13:03:18;21.10;98.40
4390;DHT22;2209;48.982;8.406;2023-09-19T13:05:52;21.10;98.40
4390;DHT22;2209;48.982;8.406;2023-09-19T13:08:18;21.10;98.00
4390;DHT22;2209;48.982;8.406;2023-09-19T13:11:04;21.20;98.00
4390;DHT22;2209;48.982;8.406;2023-09-19T13:13:30;21.30;97.90
4390;DHT22;2209;48.982;8.406;2023-09-19T13:15:52;21.30;98.00
4390;DHT22;2209;48.982;8.406;2023-09-19T13:18:15;21.40;98.00
4390;DHT22;2209;48.982;8.406;2023-09-19T13:20:39;21.50;97.90
4390;DHT22;2209;48.982;8.406;2023-09-19T13:23:26;21.50;97.50
4390;DHT22;2209;48.982;8.406;2023-09-19T13:25:48;21.60;97.10
4390;DHT22;2209;48.982;8.406;2023-09-19T13:28:11;21.70;97.10
4390;DHT22;2209;48.982;8.406;2023-09-19T13:30:37;21.70;96.70
4390;DHT22;2209;48.982;8.406;2023-09-19T13:33:08;21.80;97.00
4390;DHT22;2209;48.982;8.406;2023-09-19T13:35:31;21.80;96.60
4390;DHT22;2209;48.982;8.406;2023-09-19T13:37:53;21.80;96.60
4390;DHT22;2209;48.982;8.406;2023-09-19T13:40:16;21.90;96.50
4390;DHT22;2209;48.982;8.406;2023-09-19T13:42:38;21.90;96.40
4390;DHT22;2209;48.982;8.406;2023-09-19T13:45:02;22.00;96.30
4390;DHT22;2209;48.982;8.406;2023-09-19T13:47:25;22.00;96.20
4390;DHT22;2209;48.982;8.406;2023-09-19T13:49:47;22.00;96.60
4390;DHT22;2209;48.982;8.406;2023-09-19T13:52:11;22.10;95.60
4390;DHT22;2209;48.982;8.406;2023-09-19T13:54:33;22.20;95.80
4390;DHT22;2209;48.982;8.406;2023-09-19T13:56:56;22.20;96.10
4390;DHT22;2209;48.982;8.406;2023-09-19T13:59:18;22.20;96.00
4390;DHT22;2209;48.982;8.406;2023-09-19T14:01:42;22.30;95.60
4390;DHT22;2209;48.982;8.406;2023-09-19T14:04:05;22.40;95.50
4390;DHT22;2209;48.982;8.406;2023-09-19T14:06:27;22.50;95.20
4390;DHT22;2209;48.982;8.406;2023-09-19T14:08:49;22.50;94.70
4390;DHT22;2209;48.982;8.406;2023-09-19T14:11:11;22.50;95.40
4390;DHT22;2209;48.982;8.406;2023-09-19T14:13:35;22.60;95.10
4390;DHT22;2209;48.982;8.406;2023-09-19T14:15:57;22.60;95.20
4390;DHT22;2209;48.982;8.406;2023-09-19T14:18:20;22.60;95.20
4390;DHT22;2209;48.982;8.406;2023-09-19T14:20:42;22.50;95.20
4390;DHT22;2209;48.982;8.406;2023-09-19T14:23:05;22.50;95.70
4390;DHT22;2209;48.982;8.406;2023-09-19T14:25:27;22.40;95.50
4390;DHT22;2209;48.982;8.406;2023-09-19T14:27:50;22.50;95.70
4390;DHT22;2209;48.982;8.406;2023-09-19T14:30:13;22.60;95.40
4390;DHT22;2209;48.982;8.406;2023-09-19T14:32:35;22.60;95.30
4390;DHT22;2209;48.982;8.406;2023-09-19T14:34:59;22.60;95.30
4390;DHT22;2209;48.982;8.406;2023-09-19T14:37:21;22.70;94.90
4390;DHT22;2209;48.982;8.406;2023-09-19T14:39:43;22.80;94.30
4390;DHT22;2209;48.982;8.406;2023-09-19T14:42:05;22.90;94.20
4390;DHT22;2209;48.982;8.406;2023-09-19T14:44:27;22.90;94.50
4390;DHT22;2209;48.982;8.406;2023-09-19T14:46:49;23.00;94.60
4390;DHT22;2209;48.982;8.406;2023-09-19T14:49:12;23.00;94.70
4390;DHT22;2209;48.982;8.406;2023-09-19T14:51:38;23.00;94.40
4390;DHT22;2209;48.982;8.406;2023-09-19T14:54:01;23.00;94.10
4390;DHT22;2209;48.982;8.406;2023-09-19T14:56:23;23.00;94.00
4390;DHT22;2209;48.982;8.406;2023-09-19T14:58:46;23.00;94.10
4390;DHT22;2209;48.982;8.406;2023-09-19T15:01:09;23.00;94.00
4390;DHT22;2209;48.982;8.406;2023-09-19T15:03:32;23.00;94.10
4390;DHT22;2209;48.982;8.406;2023-09-19T15:05:59;23.00;94.60
4390;DHT22;2209;48.982;8.406;2023-09-19T15:08:22;23.00;94.40
4390;DHT22;2209;48.982;8.406;2023-09-19T15:10:49;23.00;94.40
4390;DHT22;2209;48.982;8.406;2023-09-19T15:13:13;23.00;94.30
4390;DHT22;2209;48.982;8.406;2023-09-19T15:15:35;23.00;94.50
4390;DHT22;2209;48.982;8.406;2023-09-19T15:17:57;23.00;94.50
4390;DHT22;2209;48.982;8.406;2023-09-19T15:20:20;23.00;94.50
4390;DHT22;2209;48.982;8.406;2023-09-19T15:22:42;23.10;94.40
4390;DHT22;2209;48.982;8.406;2023-09-19T15:25:06;23.10;94.40
4390;DHT22;2209;48.982;8.406;2023-09-19T15:27:29;23.10;94.50
4390;DHT22;2209;48.982;8.406;2023-09-19T15:29:53;23.20;94.60
4390;DHT22;2209;48.982;8.406;2023-09-19T15:32:15;23.20;94.70
4390;DHT22;2209;48.982;8.406;2023-09-19T15:34:39;23.20;94.70
4390;DHT22;2209;48.982;8.406;2023-09-19T15:37:01;23.20;94.70
4390;DHT22;2209;48.982;8.406;2023-09-19T15:39:23;23.30;94.80
4390;DHT22;2209;48.982;8.406;2023-09-19T15:41:47;23.30;94.90
4390;DHT22;2209;48.982;8.406;2023-09-19T15:44:13;23.30;94.60
4390;DHT22;2209;48.982;8.406;2023-09-19T15:46:36;23.40;94.60
4390;DHT22;2209;48.982;8.406;2023-09-19T15:48:58;23.30;94.40
4390;DHT22;2209;48.982;8.406;2023-09-19T15:51:21;23.30;94.50
4390;DHT22;2209;48.982;8.406;2023-09-19T15:53:44;23.30;94.70
4390;DHT22;2209;48.982;8.406;2023-09-19T15:56:07;23.30;94.90